»·PEaware :: DAL867 KSLC-KSEA

DAL867 :: KSLC-KSEA

FLIGHT INFORMATION

Flight Status: Arrived
Operator:
Delta Air Lines
More flights by this operator :: More flights under this callsign
Pilot: Matt G. (27237)
Aircraft: BOEING 737-800
(B738)
More flights by this aircraft type
Origin: KSLC Salt Lake City Intl
United States
Destination: KSEA Seattle-Tacoma Intl
United States
More flights between these airports :: More routes between these airports
Route: CGULL1 TWF J15 BOI J54 BKE PDT CHINS4
File this flight plan on PilotEdge
Remarks: RMK / SIMBRIEF
Altitude:
(Current/Filed)
34,000ft
Speed:
(Current/Filed)
447kts
Departed: 27-Jul-20 07:14 PM
Arrived: 27-Jul-20 08:52 PM
Distance/Time
Traveled:
597nm/1:38
Distance/Time
To Go:
Arrived

Flight Plot

Page will automatically refresh every two minutes.


Map Options




Map Legend


Flown Route
Filed Route
Departure Airport
Arrival Airport
Navaid (VOR, NDB)
Fix

Horizontal Profiles

Position Reports

Time Latitude Longitude Heading Altitude Ground
Speed
27-Jul-20 18:41 40.788529 -111.980852 0 4223ft 0kts
27-Jul-20 18:42 40.788529 -111.980852 282 4223ft 0kts
27-Jul-20 18:43 40.788529 -111.980852 282 4223ft 0kts
27-Jul-20 18:44 40.788529 -111.980852 282 4223ft 0kts
27-Jul-20 18:45 40.788529 -111.980852 282 4223ft 0kts
27-Jul-20 18:46 40.788529 -111.980852 282 4223ft 0kts
27-Jul-20 18:47 40.788529 -111.980852 282 4223ft 0kts
27-Jul-20 18:48 40.788529 -111.980852 282 4223ft 0kts
27-Jul-20 18:49 40.788529 -111.980852 282 4223ft 0kts
27-Jul-20 18:50 40.788529 -111.980852 282 4223ft 0kts
27-Jul-20 18:51 40.788529 -111.980852 282 4223ft 0kts
27-Jul-20 18:52 40.788529 -111.980852 282 4223ft 0kts
27-Jul-20 18:53 40.788529 -111.980852 282 4223ft 0kts
27-Jul-20 18:54 40.788529 -111.980852 282 4223ft 0kts
27-Jul-20 18:55 40.788529 -111.980852 282 4223ft 0kts
27-Jul-20 18:56 40.788529 -111.980852 282 4223ft 0kts
27-Jul-20 18:57 40.788529 -111.980852 282 4223ft 0kts
27-Jul-20 18:58 40.788529 -111.980852 282 4223ft 0kts
27-Jul-20 18:59 40.788529 -111.980852 282 4223ft 0kts
27-Jul-20 19:00 40.788396 -111.980369 282 4223ft 1kts
27-Jul-20 19:01 40.788185 -111.979709 340 4223ft 2kts
27-Jul-20 19:02 40.787994 -111.979705 9 4224ft 0kts
27-Jul-20 19:03 40.787994 -111.979705 9 4223ft 0kts
27-Jul-20 19:04 40.787994 -111.979705 9 4223ft 0kts
27-Jul-20 19:05 40.787994 -111.979705 9 4223ft 0kts
27-Jul-20 19:06 40.788573 -111.979603 7 4223ft 12kts
27-Jul-20 19:07 40.790235 -111.978315 79 4223ft 8kts
27-Jul-20 19:08 40.793407 -111.977456 356 4222ft 15kts
27-Jul-20 19:09 40.797849 -111.977981 354 4223ft 18kts
27-Jul-20 19:10 40.804187 -111.978702 356 4228ft 27kts
27-Jul-20 19:11 40.807380 -111.978622 63 4227ft 0kts
27-Jul-20 19:12 40.807435 -111.978419 76 4227ft 5kts
27-Jul-20 19:13 40.803511 -111.976462 174 4230ft 76kts
27-Jul-20 19:14 40.768444 -111.973847 187 5084ft 172kts
27-Jul-20 19:15 40.745678 -112.025963 286 6465ft 202kts
27-Jul-20 19:16 40.781121 -112.083937 324 7577ft 229kts
27-Jul-20 19:17 40.825546 -112.133218 321 9051ft 263kts
27-Jul-20 19:18 40.864912 -112.179130 320 9995ft 300kts
27-Jul-20 19:19 40.919739 -112.244843 319 11001ft 326kts
27-Jul-20 19:20 40.984323 -112.322568 319 13420ft 339kts
27-Jul-20 19:21 41.054729 -112.407589 319 15622ft 361kts
27-Jul-20 19:22 41.140653 -112.485507 329 17807ft 380kts
27-Jul-20 19:23 41.232348 -112.573397 323 19936ft 399kts
27-Jul-20 19:24 41.309263 -112.664729 310 21662ft 413kts
27-Jul-20 19:25 41.373773 -112.759685 310 23176ft 423kts
27-Jul-20 19:26 41.440344 -112.859313 309 24628ft 433kts
27-Jul-20 19:27 41.507554 -112.962490 309 26074ft 440kts
27-Jul-20 19:28 41.585069 -113.081437 309 27636ft 447kts
27-Jul-20 19:29 41.675920 -113.221434 308 29248ft 457kts
27-Jul-20 19:30 41.770663 -113.368202 307 30776ft 465kts
27-Jul-20 19:31 41.859883 -113.506988 306 32544ft 460kts
27-Jul-20 19:32 41.946452 -113.642293 306 34046ft 457kts
27-Jul-20 19:33 42.029940 -113.773350 305 34057ft 464kts
27-Jul-20 19:35 42.114994 -113.907463 305 34051ft 464kts
27-Jul-20 19:36 42.203908 -114.049006 305 34051ft 463kts
27-Jul-20 19:37 42.294234 -114.192705 305 34063ft 463kts
27-Jul-20 19:38 42.382088 -114.332514 305 34070ft 465kts
27-Jul-20 19:39 42.469934 -114.472947 305 34066ft 464kts
27-Jul-20 19:40 42.555189 -114.605741 306 34069ft 463kts
27-Jul-20 19:41 42.637883 -114.733794 306 34074ft 465kts
27-Jul-20 19:42 42.721439 -114.863776 306 34082ft 464kts
27-Jul-20 19:43 42.797355 -114.982399 306 34069ft 465kts
27-Jul-20 19:44 42.881288 -115.114132 306 34075ft 480kts
27-Jul-20 19:45 42.969117 -115.252547 305 34072ft 479kts
27-Jul-20 19:46 43.053337 -115.385842 304 34027ft 458kts
27-Jul-20 19:47 43.134250 -115.514661 304 33994ft 461kts
27-Jul-20 19:48 43.217382 -115.647507 304 33991ft 462kts
27-Jul-20 19:49 43.299404 -115.779149 303 33998ft 460kts
27-Jul-20 19:50 43.381076 -115.910878 303 34000ft 463kts
27-Jul-20 19:51 43.460867 -116.040122 303 34002ft 462kts
27-Jul-20 19:51 43.526962 -116.147623 303 33999ft 462kts
27-Jul-20 19:53 43.631635 -116.288100 312 33989ft 469kts
27-Jul-20 19:54 43.727215 -116.405035 312 33975ft 469kts
27-Jul-20 19:54 43.806495 -116.502347 312 33978ft 470kts
27-Jul-20 19:55 43.901917 -116.619968 312 33987ft 469kts
27-Jul-20 19:57 44.011945 -116.756201 311 33979ft 469kts
27-Jul-20 19:57 44.091516 -116.855173 311 33962ft 468kts
27-Jul-20 19:58 44.183454 -116.969987 312 33948ft 461kts
27-Jul-20 19:59 44.271780 -117.080811 313 33951ft 455kts
27-Jul-20 20:00 44.358977 -117.190673 313 33954ft 454kts
27-Jul-20 20:01 44.441336 -117.296053 313 33991ft 455kts
27-Jul-20 20:02 44.536764 -117.417357 313 34034ft 454kts
27-Jul-20 20:03 44.630820 -117.537403 313 34036ft 454kts
27-Jul-20 20:04 44.724016 -117.656898 312 34037ft 454kts
27-Jul-20 20:05 44.814506 -117.773515 314 34047ft 462kts
27-Jul-20 20:06 44.908809 -117.895858 314 34049ft 460kts
27-Jul-20 20:07 45.001989 -118.016713 314 34037ft 459kts
27-Jul-20 20:08 45.093563 -118.135902 313 34005ft 451kts
27-Jul-20 20:09 45.182629 -118.252395 313 33988ft 448kts
27-Jul-20 20:10 45.272422 -118.370345 313 33976ft 449kts
27-Jul-20 20:11 45.362185 -118.488782 313 33930ft 448kts
27-Jul-20 20:12 45.452538 -118.608545 313 33896ft 448kts
27-Jul-20 20:13 45.541049 -118.726400 312 33900ft 448kts
27-Jul-20 20:14 45.631504 -118.847398 312 33900ft 448kts
27-Jul-20 20:15 45.718675 -118.970659 305 33912ft 444kts
27-Jul-20 20:16 45.797586 -119.105748 306 33882ft 444kts
27-Jul-20 20:17 45.876415 -119.239203 306 33850ft 444kts
27-Jul-20 20:18 45.955300 -119.373387 306 33842ft 444kts
27-Jul-20 20:19 46.033431 -119.506929 306 33833ft 444kts
27-Jul-20 20:20 46.110960 -119.640084 306 33822ft 445kts
27-Jul-20 20:21 46.188235 -119.773452 306 33825ft 445kts
27-Jul-20 20:22 46.264106 -119.906220 306 33835ft 435kts
27-Jul-20 20:23 46.339159 -120.037294 305 33727ft 429kts
27-Jul-20 20:24 46.412818 -120.166298 305 32720ft 415kts
27-Jul-20 20:25 46.484461 -120.292311 306 31208ft 407kts
27-Jul-20 20:26 46.552424 -120.412396 306 29154ft 397kts
27-Jul-20 20:27 46.615418 -120.538568 302 27092ft 384kts
27-Jul-20 20:28 46.673819 -120.661066 302 25125ft 372kts
27-Jul-20 20:29 46.729758 -120.778724 302 23204ft 362kts
27-Jul-20 20:30 46.784923 -120.895184 302 21397ft 349kts
27-Jul-20 20:31 46.837998 -121.008187 302 19620ft 338kts
27-Jul-20 20:32 46.889941 -121.118995 302 17829ft 330kts
27-Jul-20 20:33 46.938962 -121.223761 302 16178ft 323kts
27-Jul-20 20:34 46.988621 -121.330300 301 14620ft 313kts
27-Jul-20 20:35 47.036202 -121.432777 301 13136ft 303kts
27-Jul-20 20:36 47.082348 -121.532650 301 12000ft 294kts
27-Jul-20 20:37 47.126881 -121.629878 301 11983ft 297kts
27-Jul-20 20:38 47.173059 -121.730470 300 11981ft 297kts
27-Jul-20 20:39 47.218365 -121.829559 300 11986ft 297kts
27-Jul-20 20:40 47.262366 -121.926295 300 11990ft 285kts
27-Jul-20 20:41 47.272475 -122.030273 241 10963ft 274kts
27-Jul-20 20:42 47.230818 -122.117642 235 9030ft 268kts
27-Jul-20 20:43 47.187021 -122.204704 235 7032ft 265kts
27-Jul-20 20:44 47.150637 -122.295161 268 5058ft 256kts
27-Jul-20 20:45 47.189844 -122.363294 353 3236ft 257kts
27-Jul-20 20:46 47.246314 -122.333019 25 2819ft 213kts
27-Jul-20 20:47 47.295947 -122.311527 3 1645ft 175kts
27-Jul-20 20:48 47.338905 -122.308961 358 1384ft 159kts
27-Jul-20 20:49 47.381452 -122.308345 358 1125ft 154kts
27-Jul-20 20:50 47.420233 -122.308157 359 573ft 146kts
27-Jul-20 20:51 47.447912 -122.307929 358 400ft 38kts
27-Jul-20 20:52 47.450111 -122.306697 91 408ft 0kts
27-Jul-20 20:53 47.447790 -122.306268 180 400ft 15kts
27-Jul-20 20:54 47.442794 -122.305955 140 384ft 10kts
27-Jul-20 20:55 47.440166 -122.305132 135 376ft 12kts
27-Jul-20 20:56 47.439158 -122.303397 138 375ft 0kts
27-Jul-20 20:57 47.439158 -122.303397 138 375ft 0kts

Navigation Log

Ident Type
Flight plan parsing failed, navigation log unavailable